Hovedside
METAR-TAF:

METAR-TAF

Lufthavner :

Kittilä, Finland

Kittilä lufthavn

breddegrad: 67-42N, lengdegrad: 024-51E, høyde over havet: 196 m

Gjeldene værobservasjon

Denne rapporten ble laget for 20 minutter siden, klokken 05:50 UTC
Vind 11 kt fra Vest-nordvest
Temperatur -5°C
Luftfuktighet 68%
Trykk 1009 hPa
Sikt 10 km eller mer
ingen skyer under 1500 m og ingen bygeskyer

METAR: EFKT 240550Z 30011KT CAVOK M05/M10 Q1009

Tid: 08:10 (06:10 UTC)

Varsel

Denne rapporten ble laget for 45 minutter siden, klokken 05:25 UTC
Varsel gyldig fra 24. klokken 06 UTC til 24. klokken 15 UTC
Vind 10 kt fra Vest-nordvest
Sikt 10 km eller mer
ingen skyer under 1500 m og ingen bygeskyer

TAF: EFKT 240525Z 2406/2415 29010KT CAVOK

Værobservasjoner og værvarsel for over 4000 flyplasser (METAR- og TAF-rapporter).

Tilgjengelige stasjoner er representert av de røde og gule prikkene på kartet.

Hold musepekeren over prikken for å se navnet på stasjonen.

Klikk så for å se værobservasjoner og -varsler.

For å forandre kartet kan du klikke på den grønne knappen med svart kryss for å zoome inn, på den grønne knappen med strek for å zoome ut, eller på de grønne pilene for å se tilstøtende kart.


METAR-TAF: